createdAt,value
2019-04-20T00:01:31.964Z,12.40
2019-04-20T00:03:58.896Z,15.93
2019-04-20T00:06:31.670Z,14.60
2019-04-20T00:09:15.204Z,18.33
2019-04-20T00:11:51.714Z,14.83
2019-04-20T00:14:15.955Z,16.97
2019-04-20T00:16:41.939Z,19.70
2019-04-20T00:19:10.727Z,17.50
2019-04-20T00:21:58.606Z,16.53
2019-04-20T00:24:30.144Z,17.60
2019-04-20T00:27:13.595Z,21.50
2019-04-20T00:32:38.593Z,23.60
2019-04-20T00:35:02.128Z,22.90
2019-04-20T00:37:36.351Z,24.63
2019-04-20T00:43:24.730Z,24.53
2019-04-20T00:46:04.895Z,33.20
2019-04-20T00:48:33.754Z,31.20
2019-04-20T00:51:20.261Z,30.60
2019-04-20T00:53:34.188Z,31.87
2019-04-20T00:55:57.109Z,34.47
2019-04-20T00:58:33.391Z,28.80
2019-04-20T01:01:12.800Z,29.23
2019-04-20T01:03:44.615Z,32.03
2019-04-20T01:06:28.932Z,28.77
2019-04-20T01:08:42.757Z,27.17
2019-04-20T01:11:12.317Z,31.20
2019-04-20T01:13:58.862Z,39.60
2019-04-20T01:16:36.581Z,47.20
2019-04-20T01:18:56.256Z,61.30
2019-04-20T01:21:30.015Z,50.27
2019-04-20T01:24:01.692Z,78.03
2019-04-20T01:26:27.735Z,68.23
2019-04-20T01:29:08.910Z,100.50
2019-04-20T01:31:35.532Z,91.73
2019-04-20T01:34:32.515Z,96.97
2019-04-20T01:37:05.185Z,79.00
2019-04-20T01:39:55.419Z,91.17
2019-04-20T01:42:23.516Z,78.60
2019-04-20T01:47:45.258Z,99.73
2019-04-20T01:50:16.676Z,115.00
2019-04-20T01:52:50.807Z,92.77
2019-04-20T01:55:34.695Z,100.30
2019-04-20T01:58:11.906Z,97.33
2019-04-20T02:00:40.729Z,122.53
2019-04-20T02:03:13.081Z,167.23
2019-04-20T02:05:43.348Z,166.00
2019-04-20T02:08:16.710Z,165.03
2019-04-20T02:10:49.072Z,179.53
2019-04-20T02:13:13.484Z,201.40
2019-04-20T02:15:48.595Z,202.63
2019-04-20T02:18:29.704Z,232.80
2019-04-20T02:21:00.244Z,236.03
2019-04-20T02:23:27.412Z,230.47
2019-04-20T02:25:44.486Z,227.90
2019-04-20T02:28:27.247Z,205.17
2019-04-20T02:34:07.015Z,206.00
2019-04-20T02:39:37.900Z,210.53
2019-04-20T02:44:34.018Z,200.97
2019-04-20T02:47:14.840Z,192.83
2019-04-20T02:54:26.034Z,172.57
2019-04-20T02:57:07.287Z,176.70
2019-04-20T02:59:54.295Z,176.63
2019-04-20T03:01:51.763Z,164.07
2019-04-20T03:04:06.425Z,154.07
2019-04-20T03:06:46.707Z,141.63
2019-04-20T03:09:28.408Z,142.17
2019-04-20T03:14:22.830Z,136.03
2019-04-20T03:16:50.414Z,125.53
2019-04-20T03:19:20.761Z,133.13
2019-04-20T03:22:24.515Z,121.63
2019-04-20T03:25:18.064Z,109.47
2019-04-20T03:27:55.268Z,100.43
2019-04-20T03:31:18.444Z,103.03
2019-04-20T03:35:43.557Z,98.20
2019-04-20T03:38:07.570Z,89.07
2019-04-20T03:40:53.166Z,92.40
2019-04-20T03:43:15.994Z,93.63
2019-04-20T03:45:54.372Z,98.47
2019-04-20T03:48:34.615Z,97.43
2019-04-20T03:51:34.391Z,100.37
2019-04-20T03:54:13.773Z,89.43
2019-04-20T03:56:54.760Z,91.40
2019-04-20T03:59:27.945Z,80.10
2019-04-20T04:02:22.445Z,91.33
2019-04-20T04:04:38.891Z,82.90
2019-04-20T04:06:56.175Z,83.87
2019-04-20T04:09:35.305Z,58.43
2019-04-20T04:12:07.714Z,73.70
2019-04-20T04:14:22.434Z,67.63
2019-04-20T04:16:55.680Z,76.23
2019-04-20T04:19:28.455Z,74.50
2019-04-20T04:22:04.136Z,84.17
2019-04-20T04:24:31.641Z,93.53
2019-04-20T04:27:05.874Z,93.17
2019-04-20T04:29:43.015Z,88.53
2019-04-20T04:32:25.523Z,71.73
2019-04-20T04:34:45.907Z,80.03
2019-04-20T04:37:13.466Z,68.00
2019-04-20T04:39:47.436Z,58.47
2019-04-20T04:42:16.918Z,66.83
2019-04-20T04:44:37.759Z,77.57
2019-04-20T04:46:59.530Z,76.60
2019-04-20T04:49:31.372Z,62.47
2019-04-20T04:52:01.963Z,50.87
2019-04-20T04:54:34.666Z,59.60
2019-04-20T04:56:56.676Z,68.40
2019-04-20T04:59:25.683Z,80.70
2019-04-20T05:01:56.792Z,28.73
2019-04-20T05:04:49.855Z,54.00
2019-04-20T05:07:09.413Z,72.10
2019-04-20T05:09:27.582Z,16.63
2019-04-20T05:12:03.964Z,13.80
2019-04-20T05:14:41.865Z,14.70
2019-04-20T05:17:11.682Z,13.60
2019-04-20T05:19:47.514Z,11.63
2019-04-20T05:22:20.605Z,12.93
2019-04-20T05:24:58.028Z,11.63
2019-04-20T05:27:36.320Z,11.43
2019-04-20T05:29:42.819Z,11.60
2019-04-20T05:32:16.352Z,12.37
2019-04-20T05:35:06.703Z,10.60
2019-04-20T05:37:33.277Z,10.50
2019-04-20T05:40:04.966Z,10.40
2019-04-20T05:42:35.588Z,10.53
2019-04-20T05:45:01.961Z,11.67
2019-04-20T05:47:36.200Z,10.87
2019-04-20T05:49:56.957Z,10.80
2019-04-20T05:55:04.116Z,10.57
2019-04-20T05:57:39.715Z,10.50
2019-04-20T06:00:12.605Z,11.13
2019-04-20T06:02:33.254Z,10.53
2019-04-20T06:05:10.859Z,9.73
2019-04-20T06:07:37.224Z,10.00
2019-04-20T06:10:05.827Z,10.53
2019-04-20T06:12:36.290Z,10.87
2019-04-20T06:15:00.330Z,10.20
2019-04-20T06:17:42.261Z,10.47
2019-04-20T06:20:15.557Z,9.97
2019-04-20T06:25:31.299Z,10.90
2019-04-20T06:27:45.106Z,9.97
2019-04-20T06:30:12.171Z,10.75
2019-04-20T06:33:07.799Z,9.67
2019-04-20T06:35:56.109Z,9.60
2019-04-20T06:38:10.774Z,9.40
2019-04-20T06:43:09.053Z,10.10
2019-04-20T06:45:35.024Z,11.67
2019-04-20T06:48:06.206Z,11.50
2019-04-20T06:50:29.180Z,9.83
2019-04-20T06:53:16.289Z,10.53
2019-04-20T06:55:42.964Z,10.27
2019-04-20T06:58:12.684Z,10.13
2019-04-20T07:00:42.068Z,10.20
2019-04-20T07:03:18.477Z,11.47
2019-04-20T07:05:40.640Z,11.60
2019-04-20T07:08:27.660Z,10.43
2019-04-20T07:10:43.953Z,12.00
2019-04-20T07:13:06.843Z,11.80
2019-04-20T07:15:42.757Z,9.80
2019-04-20T07:18:26.184Z,9.07
2019-04-20T07:20:55.632Z,9.53
2019-04-20T07:23:32.933Z,9.17
2019-04-20T07:26:02.066Z,8.53
2019-04-20T07:28:32.759Z,8.80
2019-04-20T07:30:56.940Z,10.70
2019-04-20T07:33:26.959Z,9.80
2019-04-20T07:35:55.979Z,7.90
2019-04-20T07:38:34.347Z,10.97
2019-04-20T07:40:59.997Z,7.93
2019-04-20T07:43:34.848Z,7.70
2019-04-20T07:46:02.766Z,7.80
2019-04-20T07:48:30.874Z,6.47
2019-04-20T07:50:55.476Z,7.00
2019-04-20T07:53:30.546Z,9.60
2019-04-20T07:56:25.600Z,7.03
2019-04-20T07:58:49.219Z,6.90
2019-04-20T08:02:01.205Z,6.27
2019-04-20T08:04:47.120Z,7.07
2019-04-20T08:07:07.157Z,7.30
2019-04-20T08:09:42.354Z,6.33
2019-04-20T08:12:51.620Z,6.57
2019-04-20T08:15:25.868Z,6.00
2019-04-20T08:20:11.680Z,6.50
2019-04-20T08:22:50.276Z,6.20
2019-04-20T08:25:08.823Z,7.13
2019-04-20T08:27:27.564Z,11.33
2019-04-20T08:30:18.521Z,9.97
2019-04-20T08:32:50.582Z,7.50
2019-04-20T08:35:32.037Z,7.03
2019-04-20T08:38:14.480Z,6.40
2019-04-20T08:40:28.305Z,7.00
2019-04-20T08:43:06.159Z,7.00
2019-04-20T08:45:34.899Z,7.50
2019-04-20T08:48:09.833Z,6.23
2019-04-20T08:50:29.933Z,5.90
2019-04-20T08:53:15.920Z,6.50
2019-04-20T08:55:29.749Z,6.63
2019-04-20T08:57:44.379Z,6.10
2019-04-20T09:00:28.871Z,5.83
2019-04-20T09:05:52.526Z,5.70
2019-04-20T09:08:17.773Z,6.05
2019-04-20T09:11:02.693Z,5.60
2019-04-20T09:13:21.137Z,5.40
2019-04-20T09:15:44.651Z,5.63
2019-04-20T09:18:34.373Z,5.70
2019-04-20T09:21:06.790Z,5.40
2019-04-20T09:23:49.685Z,4.80
2019-04-20T09:26:20.191Z,5.00
2019-04-20T09:29:04.089Z,4.90
2019-04-20T09:31:39.552Z,6.03
2019-04-20T09:34:20.543Z,4.87
2019-04-20T09:37:09.598Z,5.57
2019-04-20T09:39:32.667Z,5.03
2019-04-20T09:42:01.436Z,5.03
2019-04-20T09:44:31.417Z,4.63
2019-04-20T09:50:33.677Z,7.57
2019-04-20T09:53:02.445Z,4.53
2019-04-20T09:55:29.424Z,5.07
2019-04-20T09:58:02.735Z,8.10
2019-04-20T10:00:38.335Z,5.47
2019-04-20T10:02:54.606Z,5.30
2019-04-20T10:05:25.299Z,5.60
2019-04-20T10:07:58.725Z,5.20
2019-04-20T10:10:33.953Z,4.90
2019-04-20T10:13:01.035Z,6.07
2019-04-20T10:15:31.362Z,5.27
2019-04-20T10:18:00.020Z,4.90
2019-04-20T10:20:33.084Z,5.07
2019-04-20T10:23:01.040Z,4.43
2019-04-20T10:25:30.842Z,4.37
2019-04-20T10:28:01.226Z,6.30
2019-04-20T10:30:30.611Z,4.23
2019-04-20T10:32:59.570Z,5.20
2019-04-20T10:35:28.027Z,3.97
2019-04-20T10:37:59.749Z,4.00
2019-04-20T10:40:42.700Z,5.30
2019-04-20T10:43:01.039Z,6.80
2019-04-20T10:45:28.904Z,7.97
2019-04-20T10:47:57.447Z,5.33
2019-04-20T10:50:29.291Z,4.00
2019-04-20T10:52:59.632Z,11.47
2019-04-20T10:55:29.358Z,4.77
2019-04-20T10:57:59.713Z,3.23
2019-04-20T11:00:39.704Z,3.97
2019-04-20T11:03:10.010Z,4.37
2019-04-20T11:05:42.573Z,3.93
2019-04-20T11:08:12.769Z,4.37
2019-04-20T11:10:55.397Z,4.53
2019-04-20T11:22:32.642Z,3.87
2019-04-20T11:25:02.209Z,3.40
2019-04-20T11:27:34.126Z,4.33
2019-04-20T11:30:02.741Z,3.97
2019-04-20T11:32:33.865Z,4.43
2019-04-20T11:35:11.074Z,4.17
2019-04-20T11:37:35.179Z,4.23
2019-04-20T11:40:06.965Z,3.70
2019-04-20T11:42:38.039Z,3.83
2019-04-20T11:45:08.866Z,3.70
2019-04-20T11:47:39.758Z,4.20
2019-04-20T11:50:13.759Z,4.07
2019-04-20T11:52:47.483Z,4.10
2019-04-20T11:55:16.016Z,3.80
2019-04-20T11:57:45.317Z,4.00
2019-04-20T12:00:19.186Z,3.00
2019-04-20T12:03:09.581Z,3.93
2019-04-20T12:05:38.103Z,3.90
2019-04-20T12:11:27.804Z,3.80
2019-04-20T12:13:46.838Z,4.20
2019-04-20T12:16:17.229Z,3.97
2019-04-20T12:18:56.862Z,3.70
2019-04-20T12:21:26.939Z,3.90
2019-04-20T12:23:56.175Z,4.40
2019-04-20T12:26:31.077Z,3.90
2019-04-20T12:29:03.464Z,3.53
2019-04-20T12:31:31.589Z,3.77
2019-04-20T12:34:00.241Z,3.60
2019-04-20T12:36:30.153Z,4.17
2019-04-20T12:39:01.231Z,3.43
2019-04-20T12:41:39.484Z,3.97
2019-04-20T12:44:03.891Z,3.70
2019-04-20T12:46:34.042Z,5.53
2019-04-20T12:49:05.455Z,3.77
2019-04-20T12:51:48.001Z,4.10
2019-04-20T12:57:08.929Z,3.67
2019-04-20T12:59:39.257Z,3.53
2019-04-20T13:02:11.357Z,3.60
2019-04-20T13:04:41.612Z,3.60
2019-04-20T13:07:10.552Z,4.13
2019-04-20T13:09:42.084Z,4.37
2019-04-20T13:12:19.328Z,3.33
2019-04-20T13:14:58.223Z,3.77
2019-04-20T13:17:28.246Z,3.47
2019-04-20T13:19:57.510Z,4.60
2019-04-20T13:22:28.678Z,3.93
2019-04-20T13:25:05.264Z,4.30
2019-04-20T13:27:34.619Z,3.40
2019-04-20T13:30:07.140Z,3.63
2019-04-20T13:32:41.437Z,3.70
2019-04-20T13:35:12.311Z,4.13
2019-04-20T13:37:42.328Z,4.00
2019-04-20T13:40:13.164Z,4.47
2019-04-20T13:42:41.761Z,4.57
2019-04-20T13:45:12.915Z,4.10
2019-04-20T13:47:43.188Z,4.40
2019-04-20T13:50:14.342Z,4.10
2019-04-20T13:52:44.717Z,4.00
2019-04-20T13:55:13.636Z,3.67
2019-04-20T13:57:47.974Z,3.90
2019-04-20T14:00:24.293Z,5.63
2019-04-20T14:03:00.543Z,3.73
2019-04-20T14:05:33.046Z,3.87
2019-04-20T14:08:15.608Z,3.90
2019-04-20T14:10:49.254Z,4.83
2019-04-20T14:13:22.087Z,4.10
2019-04-20T14:15:51.263Z,4.10
2019-04-20T14:18:25.015Z,4.03
2019-04-20T14:20:58.339Z,4.10
2019-04-20T14:23:30.977Z,3.97
2019-04-20T14:26:02.982Z,4.30
2019-04-20T14:28:33.211Z,4.27
2019-04-20T14:31:03.783Z,4.17
2019-04-20T14:33:34.782Z,4.20
2019-04-20T14:36:05.804Z,4.20
2019-04-20T14:38:36.171Z,4.60
2019-04-20T14:43:34.408Z,4.00
2019-04-20T14:46:05.038Z,4.20
2019-04-20T14:48:34.666Z,4.53
2019-04-20T14:51:03.699Z,4.23
2019-04-20T14:53:33.636Z,4.43
2019-04-20T14:56:02.696Z,6.40
2019-04-20T14:58:49.334Z,4.30
2019-04-20T15:01:27.384Z,4.33
2019-04-20T15:04:02.827Z,4.33
2019-04-20T15:06:27.480Z,4.37
2019-04-20T15:08:56.712Z,3.67
2019-04-20T15:11:25.401Z,3.73
2019-04-20T15:13:56.533Z,4.80
2019-04-20T15:16:24.667Z,4.17
2019-04-20T15:19:00.904Z,5.77
2019-04-20T15:21:31.421Z,4.70
2019-04-20T15:24:01.627Z,6.10
2019-04-20T15:26:30.750Z,4.27
2019-04-20T15:29:00.019Z,5.70
2019-04-20T15:31:30.122Z,4.87
2019-04-20T15:33:59.301Z,4.63
2019-04-20T15:36:28.496Z,4.63
2019-04-20T15:38:57.411Z,4.40
2019-04-20T15:41:27.464Z,4.70
2019-04-20T15:43:57.466Z,4.53
2019-04-20T15:46:27.619Z,4.50
2019-04-20T15:48:57.694Z,5.13
2019-04-20T15:51:27.824Z,4.60
2019-04-20T15:56:26.862Z,5.77
2019-04-20T15:58:56.655Z,4.67
2019-04-20T16:01:28.325Z,4.40
2019-04-20T16:04:03.635Z,4.30
2019-04-20T16:06:34.906Z,5.33
2019-04-20T16:09:08.410Z,112.43
2019-04-20T16:11:39.246Z,4.93
2019-04-20T16:14:09.040Z,115.67
2019-04-20T16:16:38.617Z,7.00
2019-04-20T16:19:13.630Z,3.93
2019-04-20T16:21:39.559Z,9.77
2019-04-20T16:24:10.942Z,5.30
2019-04-20T16:26:41.960Z,7.97
2019-04-20T16:29:11.564Z,6.57
2019-04-20T16:31:44.935Z,5.30
2019-04-20T16:34:13.896Z,6.47
2019-04-20T16:36:44.532Z,6.80
2019-04-20T16:39:14.670Z,5.23
2019-04-20T16:41:44.449Z,4.60
2019-04-20T16:44:13.498Z,4.53
2019-04-20T16:46:42.473Z,5.83
2019-04-20T16:49:12.765Z,4.43
2019-04-20T16:51:43.048Z,5.17
2019-04-20T16:54:12.159Z,5.33
2019-04-20T16:56:42.579Z,24.53
2019-04-20T16:59:15.268Z,9.27
2019-04-20T17:01:46.517Z,5.20
2019-04-20T17:04:21.215Z,5.13
2019-04-20T17:06:55.933Z,4.20
2019-04-20T17:09:26.169Z,4.00
2019-04-20T17:11:54.720Z,5.60
2019-04-20T17:14:23.948Z,6.60
2019-04-20T17:16:55.993Z,5.83
2019-04-20T17:19:27.893Z,5.80
2019-04-20T17:21:57.198Z,5.10
2019-04-20T17:24:25.600Z,7.60
2019-04-20T17:27:06.296Z,4.80
2019-04-20T17:29:47.232Z,7.27
2019-04-20T17:32:19.277Z,5.37
2019-04-20T17:35:03.976Z,6.25
2019-04-20T17:37:20.504Z,6.10
2019-04-20T17:40:12.973Z,5.13
2019-04-20T17:42:38.800Z,6.07
2019-04-20T17:45:00.831Z,6.00
2019-04-20T17:47:44.839Z,4.50
2019-04-20T17:50:15.067Z,4.97
2019-04-20T17:52:47.494Z,5.73
2019-04-20T17:54:57.712Z,7.37
2019-04-20T17:57:26.827Z,8.40
2019-04-20T18:00:07.675Z,7.13
2019-04-20T18:02:58.900Z,6.40
2019-04-20T18:05:33.828Z,6.10
2019-04-20T18:08:08.104Z,6.83
2019-04-20T18:10:31.816Z,5.20
2019-04-20T18:12:49.737Z,5.90
2019-04-20T18:15:34.874Z,5.60
2019-04-20T18:18:12.377Z,11.63
2019-04-20T18:20:43.340Z,26.67
2019-04-20T18:23:13.021Z,10.77
2019-04-20T18:26:06.130Z,14.63
2019-04-20T18:28:24.845Z,10.67
2019-04-20T18:30:52.590Z,8.20
2019-04-20T18:33:18.858Z,9.70
2019-04-20T18:35:48.923Z,8.27
2019-04-20T18:38:18.481Z,6.50
2019-04-20T18:40:56.031Z,6.27
2019-04-20T18:43:22.710Z,6.77
2019-04-20T18:46:08.135Z,7.73
2019-04-20T18:48:45.186Z,7.50
2019-04-20T18:50:53.659Z,7.77
2019-04-20T18:53:31.850Z,5.80
2019-04-20T18:55:56.027Z,7.03
2019-04-20T18:58:24.897Z,5.93
2019-04-20T19:00:55.387Z,5.70
2019-04-20T19:03:32.288Z,6.07
2019-04-20T19:05:55.855Z,6.20
2019-04-20T19:08:31.189Z,6.83
2019-04-20T19:11:01.713Z,10.60
2019-04-20T19:13:34.148Z,6.47
2019-04-20T19:16:15.331Z,7.50
2019-04-20T19:18:50.774Z,6.30
2019-04-20T19:21:06.873Z,6.33
2019-04-20T19:23:40.533Z,7.70
2019-04-20T19:26:11.898Z,6.00
2019-04-20T19:28:42.609Z,5.87
2019-04-20T19:31:19.465Z,10.20
2019-04-20T19:34:01.862Z,6.37
2019-04-20T19:36:19.880Z,7.20
2019-04-20T19:38:52.302Z,8.87
2019-04-20T19:41:25.457Z,5.30
2019-04-20T19:43:53.244Z,6.53
2019-04-20T19:48:52.675Z,7.00
2019-04-20T19:51:35.771Z,6.20
2019-04-20T19:54:09.478Z,6.30
2019-04-20T19:56:33.689Z,7.33
2019-04-20T19:58:59.503Z,5.30
2019-04-20T20:01:15.703Z,6.17
2019-04-20T20:03:50.329Z,6.57
2019-04-20T20:06:28.184Z,16.47
2019-04-20T20:09:06.735Z,6.93
2019-04-20T20:11:36.924Z,6.30
2019-04-20T20:14:05.906Z,6.13
2019-04-20T20:17:12.895Z,6.00
2019-04-20T20:19:44.649Z,4.80
2019-04-20T20:22:09.234Z,5.47
2019-04-20T20:24:33.365Z,5.60
2019-04-20T20:27:20.704Z,6.33
2019-04-20T20:30:11.967Z,6.63
2019-04-20T20:32:49.155Z,8.00
2019-04-20T20:35:13.982Z,7.87
2019-04-20T20:37:44.750Z,5.43
2019-04-20T20:40:24.821Z,6.97
2019-04-20T20:42:56.344Z,6.70
2019-04-20T20:45:26.251Z,6.07
2019-04-20T20:48:12.985Z,7.67
2019-04-20T20:51:02.155Z,5.93
2019-04-20T20:53:46.947Z,7.97
2019-04-20T20:56:24.377Z,5.80
2019-04-20T20:59:26.921Z,5.77
2019-04-20T21:01:52.404Z,6.73
2019-04-20T21:04:15.222Z,7.87
2019-04-20T21:06:48.704Z,6.27
2019-04-20T21:09:25.647Z,8.10
2019-04-20T21:12:01.405Z,6.47
2019-04-20T21:14:32.832Z,9.30
2019-04-20T21:17:05.005Z,7.63
2019-04-20T21:20:05.388Z,5.57
2019-04-20T21:22:40.325Z,6.17
2019-04-20T21:24:52.977Z,7.10
2019-04-20T21:27:23.926Z,5.67
2019-04-20T21:30:17.190Z,6.30
2019-04-20T21:32:43.724Z,5.43
2019-04-20T21:35:14.502Z,5.97
2019-04-20T21:37:52.554Z,6.23
2019-04-20T21:40:23.171Z,8.70
2019-04-20T21:42:51.712Z,7.73
2019-04-20T21:45:24.858Z,5.80
2019-04-20T21:47:52.589Z,8.17
2019-04-20T21:50:53.284Z,9.40
2019-04-20T21:53:27.937Z,6.40
2019-04-20T21:56:05.952Z,6.07
2019-04-20T22:01:31.704Z,7.67
2019-04-20T22:03:54.582Z,6.10
2019-04-20T22:06:26.641Z,6.53
2019-04-20T22:09:01.091Z,7.50
2019-04-20T22:11:35.756Z,5.70
2019-04-20T22:17:00.314Z,6.80
2019-04-20T22:19:38.750Z,5.83
2019-04-20T22:22:22.364Z,6.50
2019-04-20T22:24:59.826Z,8.17
2019-04-20T22:27:21.100Z,6.73
2019-04-20T22:29:50.191Z,6.03
2019-04-20T22:32:25.855Z,6.30
2019-04-20T22:35:03.082Z,6.47
2019-04-20T22:37:33.139Z,6.27
2019-04-20T22:40:11.785Z,6.17
2019-04-20T22:42:46.572Z,6.77
2019-04-20T22:45:17.235Z,5.97
2019-04-20T22:48:01.337Z,6.47
2019-04-20T22:50:46.109Z,7.40
2019-04-20T22:53:17.985Z,6.30
2019-04-20T22:56:04.521Z,6.17
2019-04-20T22:58:23.450Z,9.87
2019-04-20T23:01:23.282Z,7.33
2019-04-20T23:03:41.139Z,6.10
2019-04-20T23:06:32.017Z,5.67
2019-04-20T23:09:16.888Z,6.43
2019-04-20T23:12:08.075Z,6.17
2019-04-20T23:14:42.430Z,7.53
2019-04-20T23:17:26.924Z,8.17
2019-04-20T23:20:03.230Z,7.53
2019-04-20T23:22:40.885Z,8.60
2019-04-20T23:25:27.117Z,6.20
2019-04-20T23:28:10.186Z,6.90
2019-04-20T23:31:02.571Z,6.43
2019-04-20T23:33:31.747Z,22.47
2019-04-20T23:36:14.544Z,11.47
2019-04-20T23:38:49.949Z,8.07
2019-04-20T23:41:37.636Z,8.43
2019-04-20T23:44:39.482Z,7.53
2019-04-20T23:50:05.993Z,8.90
2019-04-20T23:52:42.635Z,9.17
2019-04-20T23:54:57.235Z,7.30
2019-04-20T23:57:26.033Z,6.70
